sensor_id;sensor_type;location;lat;lon;timestamp;pressure;altitude;pressure_sealevel;temperature
71640;BMP280;60912;48.968;10.124;2023-03-14T00:02:08;95083.47;;;10.39
71640;BMP280;60912;48.968;10.124;2023-03-14T00:04:36;95092.28;;;10.28
71640;BMP280;60912;48.968;10.124;2023-03-14T00:07:02;95090.97;;;10.19
71640;BMP280;60912;48.968;10.124;2023-03-14T00:09:28;95105.16;;;10.15
71640;BMP280;60912;48.968;10.124;2023-03-14T00:11:55;95102.25;;;10.13
71640;BMP280;60912;48.968;10.124;2023-03-14T00:14:21;95073.28;;;10.12
71640;BMP280;60912;48.968;10.124;2023-03-14T00:16:46;95068.38;;;10.20
71640;BMP280;60912;48.968;10.124;2023-03-14T00:19:12;95074.59;;;10.11
71640;BMP280;60912;48.968;10.124;2023-03-14T00:21:37;95056.16;;;10.04
71640;BMP280;60912;48.968;10.124;2023-03-14T00:24:02;95053.25;;;10.02
71640;BMP280;60912;48.968;10.124;2023-03-14T00:26:28;95053.59;;;10.06
71640;BMP280;60912;48.968;10.124;2023-03-14T00:28:54;95037.50;;;10.12
71640;BMP280;60912;48.968;10.124;2023-03-14T00:31:19;95020.28;;;10.21
71640;BMP280;60912;48.968;10.124;2023-03-14T00:33:45;95023.63;;;10.20
71640;BMP280;60912;48.968;10.124;2023-03-14T00:36:14;95035.75;;;10.17
71640;BMP280;60912;48.968;10.124;2023-03-14T00:38:40;95026.94;;;10.18
71640;BMP280;60912;48.968;10.124;2023-03-14T00:41:07;94989.56;;;10.15
71640;BMP280;60912;48.968;10.124;2023-03-14T00:43:36;94977.72;;;10.23
71640;BMP280;60912;48.968;10.124;2023-03-14T00:46:02;94950.44;;;10.27
71640;BMP280;60912;48.968;10.124;2023-03-14T00:48:28;94960.59;;;10.34
71640;BMP280;60912;48.968;10.124;2023-03-14T00:50:53;94968.41;;;10.28
71640;BMP280;60912;48.968;10.124;2023-03-14T00:53:19;94957.88;;;10.24
71640;BMP280;60912;48.968;10.124;2023-03-14T00:55:45;94930.91;;;10.23
71640;BMP280;60912;48.968;10.124;2023-03-14T00:58:12;94900.47;;;10.30
71640;BMP280;60912;48.968;10.124;2023-03-14T01:00:38;94905.81;;;10.38
71640;BMP280;60912;48.968;10.124;2023-03-14T01:03:04;94919.28;;;10.43
71640;BMP280;60912;48.968;10.124;2023-03-14T01:05:30;94943.91;;;10.51
71640;BMP280;60912;48.968;10.124;2023-03-14T01:07:56;94943.03;;;10.58
71640;BMP280;60912;48.968;10.124;2023-03-14T01:10:21;94946.25;;;10.54
71640;BMP280;60912;48.968;10.124;2023-03-14T01:12:47;94952.16;;;10.51
71640;BMP280;60912;48.968;10.124;2023-03-14T01:15:12;94958.72;;;10.46
71640;BMP280;60912;48.968;10.124;2023-03-14T01:17:38;94963.34;;;10.53
71640;BMP280;60912;48.968;10.124;2023-03-14T01:20:09;94973.34;;;10.58
71640;BMP280;60912;48.968;10.124;2023-03-14T01:22:36;94973.50;;;10.60
71640;BMP280;60912;48.968;10.124;2023-03-14T01:25:04;94965.78;;;10.68
71640;BMP280;60912;48.968;10.124;2023-03-14T01:27:29;94970.88;;;10.72
71640;BMP280;60912;48.968;10.124;2023-03-14T01:29:54;94969.56;;;10.73
71640;BMP280;60912;48.968;10.124;2023-03-14T01:32:20;94966.50;;;10.78
71640;BMP280;60912;48.968;10.124;2023-03-14T01:34:45;94967.66;;;10.75
71640;BMP280;60912;48.968;10.124;2023-03-14T01:37:10;94959.28;;;10.63
71640;BMP280;60912;48.968;10.124;2023-03-14T01:39:37;94955.66;;;10.51
71640;BMP280;60912;48.968;10.124;2023-03-14T01:42:03;94938.31;;;10.49
71640;BMP280;60912;48.968;10.124;2023-03-14T01:44:28;94936.13;;;10.47
71640;BMP280;60912;48.968;10.124;2023-03-14T01:46:53;94935.81;;;10.53
71640;BMP280;60912;48.968;10.124;2023-03-14T01:49:35;94922.19;;;10.45
71640;BMP280;60912;48.968;10.124;2023-03-14T01:52:11;94893.22;;;10.25
71640;BMP280;60912;48.968;10.124;2023-03-14T01:54:39;94890.94;;;10.21
71640;BMP280;60912;48.968;10.124;2023-03-14T01:57:12;94883.56;;;10.24
71640;BMP280;60912;48.968;10.124;2023-03-14T01:59:40;94893.97;;;10.16
71640;BMP280;60912;48.968;10.124;2023-03-14T02:02:12;94889.19;;;10.16
71640;BMP280;60912;48.968;10.124;2023-03-14T02:04:40;94873.81;;;10.13
71640;BMP280;60912;48.968;10.124;2023-03-14T02:07:20;94881.34;;;10.13
71640;BMP280;60912;48.968;10.124;2023-03-14T02:09:48;94879.50;;;10.15
71640;BMP280;60912;48.968;10.124;2023-03-14T02:12:16;94879.31;;;10.13
71640;BMP280;60912;48.968;10.124;2023-03-14T02:14:42;94871.06;;;10.13
71640;BMP280;60912;48.968;10.124;2023-03-14T02:17:13;94870.19;;;10.01
71640;BMP280;60912;48.968;10.124;2023-03-14T02:20:10;94861.13;;;9.99
71640;BMP280;60912;48.968;10.124;2023-03-14T02:22:35;94866.00;;;10.10
71640;BMP280;60912;48.968;10.124;2023-03-14T02:27:47;94859.03;;;10.18
71640;BMP280;60912;48.968;10.124;2023-03-14T02:30:24;94853.84;;;10.13
71640;BMP280;60912;48.968;10.124;2023-03-14T02:33:04;94844.00;;;10.19
71640;BMP280;60912;48.968;10.124;2023-03-14T02:35:35;94853.41;;;10.16
71640;BMP280;60912;48.968;10.124;2023-03-14T02:40:55;94869.88;;;10.26
71640;BMP280;60912;48.968;10.124;2023-03-14T02:43:20;94862.09;;;10.23
71640;BMP280;60912;48.968;10.124;2023-03-14T02:45:47;94859.78;;;10.19
71640;BMP280;60912;48.968;10.124;2023-03-14T02:48:16;94875.00;;;10.10
71640;BMP280;60912;48.968;10.124;2023-03-14T02:50:44;94861.84;;;9.99
71640;BMP280;60912;48.968;10.124;2023-03-14T02:53:13;94849.63;;;10.02
71640;BMP280;60912;48.968;10.124;2023-03-14T02:55:39;94845.44;;;10.01
71640;BMP280;60912;48.968;10.124;2023-03-14T02:58:04;94847.78;;;9.95
71640;BMP280;60912;48.968;10.124;2023-03-14T03:00:33;94833.59;;;9.99
71640;BMP280;60912;48.968;10.124;2023-03-14T03:02:58;94830.13;;;10.08
71640;BMP280;60912;48.968;10.124;2023-03-14T03:05:24;94827.94;;;10.06
71640;BMP280;60912;48.968;10.124;2023-03-14T03:07:49;94848.66;;;10.07
71640;BMP280;60912;48.968;10.124;2023-03-14T03:10:15;94845.34;;;9.99
71640;BMP280;60912;48.968;10.124;2023-03-14T03:12:40;94827.94;;;9.97
71640;BMP280;60912;48.968;10.124;2023-03-14T03:15:06;94825.03;;;10.04
71640;BMP280;60912;48.968;10.124;2023-03-14T03:17:31;94827.63;;;10.02
71640;BMP280;60912;48.968;10.124;2023-03-14T03:19:57;94820.97;;;10.05
71640;BMP280;60912;48.968;10.124;2023-03-14T03:22:22;94814.75;;;9.95
71640;BMP280;60912;48.968;10.124;2023-03-14T03:24:48;94807.66;;;9.92
71640;BMP280;60912;48.968;10.124;2023-03-14T03:27:14;94826.06;;;9.90
71640;BMP280;60912;48.968;10.124;2023-03-14T03:29:39;94824.47;;;9.96
71640;BMP280;60912;48.968;10.124;2023-03-14T03:32:07;94830.38;;;10.02
71640;BMP280;60912;48.968;10.124;2023-03-14T03:34:33;94815.16;;;10.01
71640;BMP280;60912;48.968;10.124;2023-03-14T03:36:58;94812.16;;;10.07
71640;BMP280;60912;48.968;10.124;2023-03-14T03:39:24;94809.66;;;10.20
71640;BMP280;60912;48.968;10.124;2023-03-14T03:41:49;94799.50;;;10.33
71640;BMP280;60912;48.968;10.124;2023-03-14T03:44:15;94787.84;;;10.44
71640;BMP280;60912;48.968;10.124;2023-03-14T03:46:40;94787.72;;;10.42
71640;BMP280;60912;48.968;10.124;2023-03-14T03:49:05;94789.03;;;10.41
71640;BMP280;60912;48.968;10.124;2023-03-14T03:51:30;94784.53;;;10.45
71640;BMP280;60912;48.968;10.124;2023-03-14T03:53:56;94797.00;;;10.46
71640;BMP280;60912;48.968;10.124;2023-03-14T03:56:22;94790.34;;;10.49
71640;BMP280;60912;48.968;10.124;2023-03-14T03:58:47;94793.91;;;10.52
71640;BMP280;60912;48.968;10.124;2023-03-14T04:01:13;94785.50;;;10.50
71640;BMP280;60912;48.968;10.124;2023-03-14T04:03:38;94793.09;;;10.40
71640;BMP280;60912;48.968;10.124;2023-03-14T04:06:11;94791.63;;;10.39
71640;BMP280;60912;48.968;10.124;2023-03-14T04:08:37;94781.00;;;10.24
71640;BMP280;60912;48.968;10.124;2023-03-14T04:11:03;94786.00;;;10.27
71640;BMP280;60912;48.968;10.124;2023-03-14T04:13:29;94783.41;;;10.29
71640;BMP280;60912;48.968;10.124;2023-03-14T04:15:55;94787.47;;;10.28
71640;BMP280;60912;48.968;10.124;2023-03-14T04:18:21;94796.06;;;10.23
71640;BMP280;60912;48.968;10.124;2023-03-14T04:20:53;94788.94;;;10.19
71640;BMP280;60912;48.968;10.124;2023-03-14T04:23:19;94787.66;;;10.20
71640;BMP280;60912;48.968;10.124;2023-03-14T04:25:45;94787.22;;;10.24
71640;BMP280;60912;48.968;10.124;2023-03-14T04:28:10;94784.91;;;10.11
71640;BMP280;60912;48.968;10.124;2023-03-14T04:30:35;94786.34;;;10.02
71640;BMP280;60912;48.968;10.124;2023-03-14T04:33:01;94784.03;;;10.08
71640;BMP280;60912;48.968;10.124;2023-03-14T04:35:26;94781.16;;;10.06
71640;BMP280;60912;48.968;10.124;2023-03-14T04:37:52;94779.84;;;10.07
71640;BMP280;60912;48.968;10.124;2023-03-14T04:40:18;94778.69;;;10.01
71640;BMP280;60912;48.968;10.124;2023-03-14T04:42:43;94778.59;;;9.99
71640;BMP280;60912;48.968;10.124;2023-03-14T04:45:09;94786.38;;;9.93
71640;BMP280;60912;48.968;10.124;2023-03-14T04:47:35;94789.69;;;9.91
71640;BMP280;60912;48.968;10.124;2023-03-14T04:50:00;94775.22;;;9.91
71640;BMP280;60912;48.968;10.124;2023-03-14T04:52:27;94765.53;;;9.90
71640;BMP280;60912;48.968;10.124;2023-03-14T04:54:53;94765.81;;;9.74
71640;BMP280;60912;48.968;10.124;2023-03-14T04:57:18;94771.31;;;9.74
71640;BMP280;60912;48.968;10.124;2023-03-14T04:59:44;94767.00;;;9.81
71640;BMP280;60912;48.968;10.124;2023-03-14T05:02:09;94759.47;;;9.82
71640;BMP280;60912;48.968;10.124;2023-03-14T05:04:35;94750.47;;;9.91
71640;BMP280;60912;48.968;10.124;2023-03-14T05:07:00;94754.53;;;9.90
71640;BMP280;60912;48.968;10.124;2023-03-14T05:09:26;94748.16;;;9.87
71640;BMP280;60912;48.968;10.124;2023-03-14T05:11:51;94737.31;;;9.89
71640;BMP280;60912;48.968;10.124;2023-03-14T05:14:17;94740.47;;;9.95
71640;BMP280;60912;48.968;10.124;2023-03-14T05:16:42;94732.38;;;9.97
71640;BMP280;60912;48.968;10.124;2023-03-14T05:19:08;94730.63;;;9.92
71640;BMP280;60912;48.968;10.124;2023-03-14T05:21:33;94729.19;;;9.91
71640;BMP280;60912;48.968;10.124;2023-03-14T05:23:59;94723.25;;;9.95
71640;BMP280;60912;48.968;10.124;2023-03-14T05:26:24;94719.69;;;9.73
71640;BMP280;60912;48.968;10.124;2023-03-14T05:28:49;94729.25;;;9.72
71640;BMP280;60912;48.968;10.124;2023-03-14T05:31:15;94716.47;;;9.76
71640;BMP280;60912;48.968;10.124;2023-03-14T05:33:40;94712.41;;;9.77
71640;BMP280;60912;48.968;10.124;2023-03-14T05:36:06;94704.91;;;9.78
71640;BMP280;60912;48.968;10.124;2023-03-14T05:38:32;94705.75;;;9.90
71640;BMP280;60912;48.968;10.124;2023-03-14T05:40:57;94710.38;;;9.97
71640;BMP280;60912;48.968;10.124;2023-03-14T05:43:23;94714.13;;;9.92
71640;BMP280;60912;48.968;10.124;2023-03-14T05:45:49;94710.22;;;9.95
71640;BMP280;60912;48.968;10.124;2023-03-14T05:48:15;94708.78;;;9.94
71640;BMP280;60912;48.968;10.124;2023-03-14T05:50:40;94708.63;;;9.92
71640;BMP280;60912;48.968;10.124;2023-03-14T05:53:05;94709.91;;;9.91
71640;BMP280;60912;48.968;10.124;2023-03-14T05:55:31;94699.53;;;9.90
71640;BMP280;60912;48.968;10.124;2023-03-14T05:57:56;94692.56;;;9.89
71640;BMP280;60912;48.968;10.124;2023-03-14T06:00:22;94693.31;;;9.79
71640;BMP280;60912;48.968;10.124;2023-03-14T06:02:47;94695.63;;;9.83
71640;BMP280;60912;48.968;10.124;2023-03-14T06:05:22;94690.81;;;9.93
71640;BMP280;60912;48.968;10.124;2023-03-14T06:07:48;94696.88;;;10.01
71640;BMP280;60912;48.968;10.124;2023-03-14T06:10:15;94697.19;;;9.96
71640;BMP280;60912;48.968;10.124;2023-03-14T06:12:41;94691.53;;;9.94
71640;BMP280;60912;48.968;10.124;2023-03-14T06:15:07;94699.38;;;9.97
71640;BMP280;60912;48.968;10.124;2023-03-14T06:17:32;94692.22;;;10.04
71640;BMP280;60912;48.968;10.124;2023-03-14T06:19:57;94686.31;;;10.07
71640;BMP280;60912;48.968;10.124;2023-03-14T06:22:23;94679.47;;;10.08
71640;BMP280;60912;48.968;10.124;2023-03-14T06:24:48;94685.97;;;10.13
71640;BMP280;60912;48.968;10.124;2023-03-14T06:28:10;94677.75;;;10.03
71640;BMP280;60912;48.968;10.124;2023-03-14T06:30:39;94691.09;;;10.07
71640;BMP280;60912;48.968;10.124;2023-03-14T06:33:04;94694.09;;;10.01
71640;BMP280;60912;48.968;10.124;2023-03-14T06:35:30;94699.59;;;10.11
71640;BMP280;60912;48.968;10.124;2023-03-14T06:37:55;94698.13;;;10.19
71640;BMP280;60912;48.968;10.124;2023-03-14T06:40:20;94702.28;;;10.30
71640;BMP280;60912;48.968;10.124;2023-03-14T06:42:46;94701.06;;;10.43
71640;BMP280;60912;48.968;10.124;2023-03-14T06:45:12;94695.69;;;10.45
71640;BMP280;60912;48.968;10.124;2023-03-14T06:47:38;94711.16;;;10.50
71640;BMP280;60912;48.968;10.124;2023-03-14T06:50:07;94712.31;;;10.56
71640;BMP280;60912;48.968;10.124;2023-03-14T06:52:33;94706.59;;;10.64
71640;BMP280;60912;48.968;10.124;2023-03-14T06:54:58;94701.94;;;10.66
71640;BMP280;60912;48.968;10.124;2023-03-14T06:57:24;94710.16;;;10.76
71640;BMP280;60912;48.968;10.124;2023-03-14T06:59:49;94709.53;;;10.87
71640;BMP280;60912;48.968;10.124;2023-03-14T07:02:15;94702.91;;;10.81
71640;BMP280;60912;48.968;10.124;2023-03-14T07:04:40;94706.28;;;10.91
71640;BMP280;60912;48.968;10.124;2023-03-14T07:07:06;94714.25;;;10.96
71640;BMP280;60912;48.968;10.124;2023-03-14T07:09:32;94705.78;;;11.04
71640;BMP280;60912;48.968;10.124;2023-03-14T07:11:58;94708.44;;;11.14
71640;BMP280;60912;48.968;10.124;2023-03-14T07:14:23;94700.97;;;11.26
71640;BMP280;60912;48.968;10.124;2023-03-14T07:16:49;94706.88;;;11.32
71640;BMP280;60912;48.968;10.124;2023-03-14T07:19:14;94716.34;;;11.29
71640;BMP280;60912;48.968;10.124;2023-03-14T07:21:39;94719.06;;;11.50
71640;BMP280;60912;48.968;10.124;2023-03-14T07:24:05;94730.53;;;11.79
71640;BMP280;60912;48.968;10.124;2023-03-14T07:26:30;94728.31;;;12.11
71640;BMP280;60912;48.968;10.124;2023-03-14T07:28:56;94726.16;;;12.32
71640;BMP280;60912;48.968;10.124;2023-03-14T07:31:22;94725.44;;;12.55
71640;BMP280;60912;48.968;10.124;2023-03-14T07:33:47;94726.41;;;12.60
71640;BMP280;60912;48.968;10.124;2023-03-14T07:36:13;94730.44;;;12.94
71640;BMP280;60912;48.968;10.124;2023-03-14T07:38:38;94734.28;;;13.12
71640;BMP280;60912;48.968;10.124;2023-03-14T07:41:05;94722.59;;;13.50
71640;BMP280;60912;48.968;10.124;2023-03-14T07:43:31;94725.03;;;13.83
71640;BMP280;60912;48.968;10.124;2023-03-14T07:45:56;94732.19;;;14.00
71640;BMP280;60912;48.968;10.124;2023-03-14T07:48:22;94723.41;;;13.78
71640;BMP280;60912;48.968;10.124;2023-03-14T07:50:50;94729.63;;;13.28
71640;BMP280;60912;48.968;10.124;2023-03-14T07:53:16;94729.16;;;13.20
71640;BMP280;60912;48.968;10.124;2023-03-14T07:55:41;94716.25;;;13.11
71640;BMP280;60912;48.968;10.124;2023-03-14T07:58:07;94722.03;;;12.92
71640;BMP280;60912;48.968;10.124;2023-03-14T08:00:32;94722.56;;;12.53
71640;BMP280;60912;48.968;10.124;2023-03-14T08:02:58;94723.06;;;12.38
71640;BMP280;60912;48.968;10.124;2023-03-14T08:05:23;94717.78;;;12.42
71640;BMP280;60912;48.968;10.124;2023-03-14T08:07:48;94730.75;;;12.63
71640;BMP280;60912;48.968;10.124;2023-03-14T08:10:14;94733.47;;;12.86
71640;BMP280;60912;48.968;10.124;2023-03-14T08:12:46;94729.97;;;12.97
71640;BMP280;60912;48.968;10.124;2023-03-14T08:15:11;94727.31;;;12.99
71640;BMP280;60912;48.968;10.124;2023-03-14T08:17:36;94729.78;;;12.70
71640;BMP280;60912;48.968;10.124;2023-03-14T08:20:02;94733.50;;;12.74
71640;BMP280;60912;48.968;10.124;2023-03-14T08:22:31;94721.13;;;12.75
71640;BMP280;60912;48.968;10.124;2023-03-14T08:24:57;94720.88;;;12.83
71640;BMP280;60912;48.968;10.124;2023-03-14T08:27:22;94721.19;;;13.01
71640;BMP280;60912;48.968;10.124;2023-03-14T08:29:48;94707.09;;;13.08
71640;BMP280;60912;48.968;10.124;2023-03-14T08:32:13;94705.59;;;13.19
71640;BMP280;60912;48.968;10.124;2023-03-14T08:34:38;94703.56;;;13.45
71640;BMP280;60912;48.968;10.124;2023-03-14T08:37:05;94700.22;;;13.46
71640;BMP280;60912;48.968;10.124;2023-03-14T08:39:30;94694.22;;;13.38
71640;BMP280;60912;48.968;10.124;2023-03-14T08:41:56;94700.91;;;13.21
71640;BMP280;60912;48.968;10.124;2023-03-14T08:44:21;94691.84;;;13.32
71640;BMP280;60912;48.968;10.124;2023-03-14T08:46:47;94684.69;;;13.66
71640;BMP280;60912;48.968;10.124;2023-03-14T08:49:12;94693.34;;;13.72
71640;BMP280;60912;48.968;10.124;2023-03-14T08:51:39;94688.59;;;13.61
71640;BMP280;60912;48.968;10.124;2023-03-14T08:54:05;94699.50;;;13.85
71640;BMP280;60912;48.968;10.124;2023-03-14T08:56:30;94702.75;;;14.06
71640;BMP280;60912;48.968;10.124;2023-03-14T08:58:55;94689.34;;;14.28
71640;BMP280;60912;48.968;10.124;2023-03-14T09:01:21;94698.78;;;14.50
71640;BMP280;60912;48.968;10.124;2023-03-14T09:03:49;94699.25;;;14.60
71640;BMP280;60912;48.968;10.124;2023-03-14T09:06:14;94697.25;;;14.47
71640;BMP280;60912;48.968;10.124;2023-03-14T09:08:43;94691.06;;;14.21
71640;BMP280;60912;48.968;10.124;2023-03-14T09:11:09;94699.50;;;13.85
71640;BMP280;60912;48.968;10.124;2023-03-14T09:13:34;94711.00;;;13.54
71640;BMP280;60912;48.968;10.124;2023-03-14T09:16:00;94694.41;;;13.54
71640;BMP280;60912;48.968;10.124;2023-03-14T09:18:26;94701.25;;;13.78
71640;BMP280;60912;48.968;10.124;2023-03-14T09:20:51;94692.38;;;14.07
71640;BMP280;60912;48.968;10.124;2023-03-14T09:23:19;94702.03;;;14.06
71640;BMP280;60912;48.968;10.124;2023-03-14T09:25:45;94707.38;;;14.15
71640;BMP280;60912;48.968;10.124;2023-03-14T09:28:10;94693.09;;;13.94
71640;BMP280;60912;48.968;10.124;2023-03-14T09:30:36;94699.84;;;13.91
71640;BMP280;60912;48.968;10.124;2023-03-14T09:33:01;94701.44;;;13.82
71640;BMP280;60912;48.968;10.124;2023-03-14T09:35:27;94691.66;;;14.06
71640;BMP280;60912;48.968;10.124;2023-03-14T09:37:52;94681.09;;;14.03
71640;BMP280;60912;48.968;10.124;2023-03-14T09:40:21;94692.78;;;13.88
71640;BMP280;60912;48.968;10.124;2023-03-14T09:42:50;94695.22;;;13.82
71640;BMP280;60912;48.968;10.124;2023-03-14T09:45:36;94691.66;;;14.20
71640;BMP280;60912;48.968;10.124;2023-03-14T09:48:04;94692.00;;;14.53
71640;BMP280;60912;48.968;10.124;2023-03-14T09:50:40;94695.56;;;14.69
71640;BMP280;60912;48.968;10.124;2023-03-14T09:53:13;94701.81;;;14.84
71640;BMP280;60912;48.968;10.124;2023-03-14T09:55:41;94701.47;;;15.05
71640;BMP280;60912;48.968;10.124;2023-03-14T09:58:13;94705.13;;;15.23
71640;BMP280;60912;48.968;10.124;2023-03-14T10:00:39;94701.97;;;15.15
71640;BMP280;60912;48.968;10.124;2023-03-14T10:05:36;94698.34;;;14.42
71640;BMP280;60912;48.968;10.124;2023-03-14T10:08:02;94694.97;;;14.44
71640;BMP280;60912;48.968;10.124;2023-03-14T10:10:28;94712.84;;;14.54
71640;BMP280;60912;48.968;10.124;2023-03-14T10:13:23;94705.94;;;14.55
71640;BMP280;60912;48.968;10.124;2023-03-14T10:16:02;94713.81;;;15.02
71640;BMP280;60912;48.968;10.124;2023-03-14T10:18:30;94717.56;;;15.51
71640;BMP280;60912;48.968;10.124;2023-03-14T10:21:24;94713.81;;;15.31
71640;BMP280;60912;48.968;10.124;2023-03-14T10:23:50;94704.56;;;15.40
71640;BMP280;60912;48.968;10.124;2023-03-14T10:26:18;94716.41;;;15.56
71640;BMP280;60912;48.968;10.124;2023-03-14T10:28:54;94720.88;;;15.63
71640;BMP280;60912;48.968;10.124;2023-03-14T10:31:26;94710.84;;;15.56
71640;BMP280;60912;48.968;10.124;2023-03-14T10:34:04;94712.25;;;15.42
71640;BMP280;60912;48.968;10.124;2023-03-14T10:36:31;94703.34;;;15.75
71640;BMP280;60912;48.968;10.124;2023-03-14T10:39:29;94719.56;;;15.64
71640;BMP280;60912;48.968;10.124;2023-03-14T10:42:04;94705.34;;;15.43
71640;BMP280;60912;48.968;10.124;2023-03-14T10:44:30;94700.84;;;15.65
71640;BMP280;60912;48.968;10.124;2023-03-14T10:47:01;94708.97;;;15.61
71640;BMP280;60912;48.968;10.124;2023-03-14T10:49:30;94699.78;;;15.88
71640;BMP280;60912;48.968;10.124;2023-03-14T10:52:01;94712.03;;;15.83
71640;BMP280;60912;48.968;10.124;2023-03-14T10:54:30;94721.66;;;16.11
71640;BMP280;60912;48.968;10.124;2023-03-14T10:56:57;94723.34;;;16.18
71640;BMP280;60912;48.968;10.124;2023-03-14T10:59:23;94722.00;;;16.19
71640;BMP280;60912;48.968;10.124;2023-03-14T11:07:11;94715.56;;;15.99
71640;BMP280;60912;48.968;10.124;2023-03-14T11:15:02;94700.75;;;16.75
71640;BMP280;60912;48.968;10.124;2023-03-14T11:28:39;94699.75;;;15.27
71640;BMP280;60912;48.968;10.124;2023-03-14T11:31:26;94706.06;;;15.14
71640;BMP280;60912;48.968;10.124;2023-03-14T11:34:05;94711.88;;;14.91
71640;BMP280;60912;48.968;10.124;2023-03-14T11:36:46;94705.09;;;14.80
71640;BMP280;60912;48.968;10.124;2023-03-14T11:39:18;94709.88;;;14.78
71640;BMP280;60912;48.968;10.124;2023-03-14T11:41:46;94711.34;;;14.94
71640;BMP280;60912;48.968;10.124;2023-03-14T11:44:19;94707.97;;;14.82
71640;BMP280;60912;48.968;10.124;2023-03-14T11:46:52;94709.75;;;14.89
71640;BMP280;60912;48.968;10.124;2023-03-14T11:51:52;94720.75;;;15.91
71640;BMP280;60912;48.968;10.124;2023-03-14T11:56:58;94727.91;;;15.96
71640;BMP280;60912;48.968;10.124;2023-03-14T12:02:22;94745.06;;;15.61
71640;BMP280;60912;48.968;10.124;2023-03-14T12:10:41;94765.28;;;13.98
71640;BMP280;60912;48.968;10.124;2023-03-14T12:13:11;94764.75;;;13.88
71640;BMP280;60912;48.968;10.124;2023-03-14T12:15:47;94773.03;;;13.37
71640;BMP280;60912;48.968;10.124;2023-03-14T12:18:29;94781.75;;;13.57
71640;BMP280;60912;48.968;10.124;2023-03-14T12:21:06;94787.50;;;13.61
71640;BMP280;60912;48.968;10.124;2023-03-14T12:23:49;94776.13;;;13.43
71640;BMP280;60912;48.968;10.124;2023-03-14T12:26:19;94788.28;;;13.38
71640;BMP280;60912;48.968;10.124;2023-03-14T12:34:25;94781.88;;;12.52
71640;BMP280;60912;48.968;10.124;2023-03-14T12:37:01;94791.28;;;12.35
71640;BMP280;60912;48.968;10.124;2023-03-14T12:45:32;94793.84;;;12.10
71640;BMP280;60912;48.968;10.124;2023-03-14T12:51:18;94796.94;;;12.49
71640;BMP280;60912;48.968;10.124;2023-03-14T12:56:28;94792.97;;;12.87
71640;BMP280;60912;48.968;10.124;2023-03-14T12:59:34;94805.59;;;12.78
71640;BMP280;60912;48.968;10.124;2023-03-14T13:04:48;94809.50;;;12.29
71640;BMP280;60912;48.968;10.124;2023-03-14T13:09:55;94817.03;;;12.17
71640;BMP280;60912;48.968;10.124;2023-03-14T13:12:38;94812.06;;;12.04
71640;BMP280;60912;48.968;10.124;2023-03-14T13:15:20;94816.44;;;12.18
71640;BMP280;60912;48.968;10.124;2023-03-14T13:17:48;94821.94;;;12.63
71640;BMP280;60912;48.968;10.124;2023-03-14T13:20:35;94819.41;;;13.02
71640;BMP280;60912;48.968;10.124;2023-03-14T13:23:02;94817.22;;;13.12
71640;BMP280;60912;48.968;10.124;2023-03-14T13:25:35;94830.53;;;13.15
71640;BMP280;60912;48.968;10.124;2023-03-14T13:28:01;94854.50;;;12.64
71640;BMP280;60912;48.968;10.124;2023-03-14T13:30:39;94857.19;;;12.41
71640;BMP280;60912;48.968;10.124;2023-03-14T13:33:05;94876.53;;;12.41
71640;BMP280;60912;48.968;10.124;2023-03-14T13:35:43;94896.81;;;12.34
71640;BMP280;60912;48.968;10.124;2023-03-14T13:38:19;94899.63;;;12.13
71640;BMP280;60912;48.968;10.124;2023-03-14T13:40:46;94924.66;;;12.05
71640;BMP280;60912;48.968;10.124;2023-03-14T13:43:21;94958.38;;;11.82
71640;BMP280;60912;48.968;10.124;2023-03-14T13:45:51;94975.44;;;11.48
71640;BMP280;60912;48.968;10.124;2023-03-14T13:48:17;94978.00;;;11.25
71640;BMP280;60912;48.968;10.124;2023-03-14T13:50:51;94995.66;;;10.81
71640;BMP280;60912;48.968;10.124;2023-03-14T13:53:18;95012.03;;;10.79
71640;BMP280;60912;48.968;10.124;2023-03-14T13:55:43;95013.06;;;10.55
71640;BMP280;60912;48.968;10.124;2023-03-14T13:58:29;95023.91;;;10.53
71640;BMP280;60912;48.968;10.124;2023-03-14T14:01:19;95033.91;;;10.58
71640;BMP280;60912;48.968;10.124;2023-03-14T14:03:44;95028.16;;;10.73
71640;BMP280;60912;48.968;10.124;2023-03-14T14:06:43;95035.94;;;10.67
71640;BMP280;60912;48.968;10.124;2023-03-14T14:09:18;95046.69;;;10.63
71640;BMP280;60912;48.968;10.124;2023-03-14T14:11:56;95052.94;;;10.73
71640;BMP280;60912;48.968;10.124;2023-03-14T14:14:33;95060.88;;;10.88
71640;BMP280;60912;48.968;10.124;2023-03-14T14:17:00;95065.69;;;10.97
71640;BMP280;60912;48.968;10.124;2023-03-14T14:19:29;95066.69;;;10.92
71640;BMP280;60912;48.968;10.124;2023-03-14T14:21:57;95092.53;;;10.87
71640;BMP280;60912;48.968;10.124;2023-03-14T14:24:24;95089.59;;;10.47
71640;BMP280;60912;48.968;10.124;2023-03-14T14:26:54;95097.44;;;10.60
71640;BMP280;60912;48.968;10.124;2023-03-14T14:29:29;95118.34;;;10.82
71640;BMP280;60912;48.968;10.124;2023-03-14T14:32:11;95124.72;;;10.94
71640;BMP280;60912;48.968;10.124;2023-03-14T14:40:21;95156.06;;;10.34
71640;BMP280;60912;48.968;10.124;2023-03-14T14:42:48;95166.63;;;10.28
71640;BMP280;60912;48.968;10.124;2023-03-14T14:45:18;95162.94;;;10.06
71640;BMP280;60912;48.968;10.124;2023-03-14T14:47:52;95177.56;;;10.08
71640;BMP280;60912;48.968;10.124;2023-03-14T14:52:46;95184.06;;;10.03
71640;BMP280;60912;48.968;10.124;2023-03-14T14:55:17;95191.78;;;10.14
71640;BMP280;60912;48.968;10.124;2023-03-14T14:57:53;95214.31;;;10.03
71640;BMP280;60912;48.968;10.124;2023-03-14T15:00:24;95199.19;;;9.85
71640;BMP280;60912;48.968;10.124;2023-03-14T15:03:13;95214.66;;;9.81
71640;BMP280;60912;48.968;10.124;2023-03-14T15:05:41;95208.69;;;9.57
71640;BMP280;60912;48.968;10.124;2023-03-14T15:08:10;95215.72;;;9.51
71640;BMP280;60912;48.968;10.124;2023-03-14T15:10:35;95241.28;;;9.61
71640;BMP280;60912;48.968;10.124;2023-03-14T15:13:01;95227.81;;;9.65
71640;BMP280;60912;48.968;10.124;2023-03-14T15:15:26;95232.88;;;9.59
71640;BMP280;60912;48.968;10.124;2023-03-14T15:17:52;95240.94;;;9.74
71640;BMP280;60912;48.968;10.124;2023-03-14T15:20:17;95242.75;;;10.06
71640;BMP280;60912;48.968;10.124;2023-03-14T15:22:44;95239.81;;;10.31